Time;durP1;ratioP1;P1;durP2;ratioP2;P2;SDS_P1;SDS_P2;PMS_P1;PMS_P2;Temp;Humidity;BMP_temperature;BMP_pressure;BME280_temperature;BME280_humidity;BME280_pressure;Samples;Min_cycle;Max_cycle;Signal;HPM_P1;HPM_P2
2022/11/29 00:00:32;;;;;;;18.88;11.95;;;;;;;-3.92;90.11;101995.16;5040464;28;20034;-64
2022/11/29 00:02:58;;;;;;;18.15;13.00;;;;;;;-4.07;89.95;101996.53;5032435;28;20029;-64
2022/11/29 00:05:23;;;;;;;17.88;13.15;;;;;;;-3.96;89.50;101997.34;5030805;28;20029;-63
2022/11/29 00:07:49;;;;;;;17.65;12.45;;;;;;;-3.91;88.92;101980.84;5041727;28;20029;-63
2022/11/29 00:10:15;;;;;;;19.08;12.45;;;;;;;-4.04;89.01;101987.53;5023204;28;20017;-63
2022/11/29 00:12:40;;;;;;;14.77;11.95;;;;;;;-3.90;88.32;102008.81;5023966;28;20022;-63
2022/11/29 00:15:06;;;;;;;17.83;11.80;;;;;;;-3.95;88.04;101996.56;5036181;28;20060;-63
2022/11/29 00:17:32;;;;;;;17.40;12.38;;;;;;;-4.09;89.79;101993.91;5035801;28;20037;-63
2022/11/29 00:19:58;;;;;;;16.60;11.45;;;;;;;-4.16;88.92;101989.16;5023615;28;20096;-63
2022/11/29 00:22:24;;;;;;;13.35;9.38;;;;;;;-4.42;88.48;101975.38;5024495;28;20025;-63
2022/11/29 00:24:50;;;;;;;15.73;9.85;;;;;;;-4.59;89.05;101971.59;5023898;28;20025;-63
2022/11/29 00:27:17;;;;;;;13.10;10.15;;;;;;;-4.43;89.33;101980.31;5037368;28;20209;-63
2022/11/29 00:29:42;;;;;;;17.33;12.00;;;;;;;-4.43;90.37;101978.69;5034279;28;20326;-63
2022/11/29 00:32:08;;;;;;;17.77;11.25;;;;;;;-4.36;88.78;101977.50;5025514;28;20021;-64
2022/11/29 00:34:34;;;;;;;16.02;11.75;;;;;;;-4.08;88.59;101987.19;5023691;28;20017;-63
2022/11/29 00:37:00;;;;;;;15.48;11.38;;;;;;;-4.34;88.71;101974.31;5042843;28;20289;-64
2022/11/29 00:39:26;;;;;;;16.13;12.02;;;;;;;-4.18;88.12;101978.88;5028337;28;20233;-64
2022/11/29 00:41:51;;;;;;;15.10;11.95;;;;;;;-3.97;88.63;101977.88;5033812;28;20026;-64
2022/11/29 00:44:17;;;;;;;17.65;11.23;;;;;;;-3.90;87.84;101978.44;5037840;28;20679;-64
2022/11/29 00:46:43;;;;;;;16.17;11.80;;;;;;;-3.79;87.01;101978.34;5024508;28;20036;-64
2022/11/29 00:49:08;;;;;;;17.33;10.88;;;;;;;-3.94;87.00;101978.97;5043422;28;20076;-65
2022/11/29 00:51:34;;;;;;;15.65;11.20;;;;;;;-4.04;86.77;101964.75;5026928;28;20223;-64
2022/11/29 00:54:00;;;;;;;14.82;10.23;;;;;;;-4.40;86.94;101981.44;5043111;28;20029;-64
2022/11/29 00:56:25;;;;;;;14.52;10.70;;;;;;;-4.17;87.52;101973.06;5025395;28;20358;-63
2022/11/29 00:58:51;;;;;;;11.98;9.75;;;;;;;-3.92;87.12;101976.56;5023474;28;20030;-63
2022/11/29 01:01:17;;;;;;;14.65;10.18;;;;;;;-3.83;87.27;101979.78;5023164;28;20090;-64
2022/11/29 01:03:42;;;;;;;12.90;9.75;;;;;;;-3.89;86.22;101956.53;5029322;28;20258;-63
2022/11/29 01:06:11;;;;;;;12.88;9.85;;;;;;;-3.84;86.09;101958.63;5031005;28;20085;-63
2022/11/29 01:08:37;;;;;;;15.35;10.60;;;;;;;-3.90;86.21;101972.50;5035481;28;20317;-63
2022/11/29 01:11:05;;;;;;;13.52;9.85;;;;;;;-4.22;86.96;101958.31;5024168;28;20022;-64
2022/11/29 01:13:31;;;;;;;13.88;10.02;;;;;;;-3.91;87.24;101971.59;5037293;28;20080;-62
2022/11/29 01:15:57;;;;;;;15.80;10.93;;;;;;;-4.01;87.17;101979.28;5033079;28;20080;-63
2022/11/29 01:18:24;;;;;;;16.17;10.55;;;;;;;-4.14;86.75;101977.47;5028279;28;20029;-63
2022/11/29 01:21:05;;;;;;;13.95;9.88;;;;;;;-4.44;87.18;101950.75;5035629;28;20026;-64
2022/11/29 01:23:31;;;;;;;17.27;11.02;;;;;;;-4.26;87.10;101963.91;5025756;28;20053;-64
2022/11/29 01:26:03;;;;;;;13.80;10.95;;;;;;;-3.98;86.69;101974.44;5044548;28;20036;-64
2022/11/29 01:28:28;;;;;;;14.15;10.40;;;;;;;-3.92;86.28;101976.56;5033235;28;20290;-63
2022/11/29 01:30:54;;;;;;;13.05;9.23;;;;;;;-4.16;87.06;101973.97;5031901;28;20021;-63
2022/11/29 01:33:21;;;;;;;14.82;10.85;;;;;;;-4.09;86.34;101967.69;5045691;28;20025;-63
2022/11/29 01:35:52;;;;;;;14.50;10.70;;;;;;;-4.42;87.20;101949.22;5046675;28;20417;-62
2022/11/29 01:38:18;;;;;;;15.15;9.95;;;;;;;-4.05;87.55;101970.56;5037648;28;20038;-63
2022/11/29 01:40:44;;;;;;;15.65;11.80;;;;;;;-4.18;86.64;101978.00;5030999;28;20041;-62
2022/11/29 01:43:19;;;;;;;18.67;11.45;;;;;;;-4.38;87.15;101974.84;5037972;28;20029;-64
2022/11/29 01:45:45;;;;;;;15.98;11.30;;;;;;;-4.56;87.19;101971.81;5038713;28;20026;-63
2022/11/29 01:48:13;;;;;;;14.48;11.38;;;;;;;-4.55;86.57;101973.56;5026633;28;20026;-63
2022/11/29 01:50:40;;;;;;;16.73;11.35;;;;;;;-4.72;87.58;101951.16;5027716;28;20026;-64
2022/11/29 01:53:07;;;;;;;16.17;11.55;;;;;;;-4.53;86.47;101967.00;5027656;28;20045;-64
2022/11/29 01:55:36;;;;;;;17.58;12.63;;;;;;;-4.75;87.66;101949.28;5026339;28;20326;-65
2022/11/29 01:58:03;;;;;;;17.83;12.93;;;;;;;-4.57;87.83;101980.16;5036151;28;20033;-64
2022/11/29 02:00:29;;;;;;;17.00;12.73;;;;;;;-4.63;88.31;101978.78;5041119;28;20026;-64
2022/11/29 02:03:18;;;;;;;18.27;13.13;;;;;;;-4.59;87.39;101975.75;5025874;28;20029;-64
2022/11/29 02:05:49;;;;;;;17.88;12.30;;;;;;;-4.72;87.60;101984.03;5026362;28;20030;-64
2022/11/29 02:08:19;;;;;;;18.90;13.20;;;;;;;-4.89;87.41;101988.66;5045846;28;20045;-65
2022/11/29 02:11:06;;;;;;;18.15;11.35;;;;;;;-4.77;88.00;101973.56;5032946;28;20053;-65
2022/11/29 02:13:57;;;;;;;15.18;12.23;;;;;;;-4.77;87.52;101973.56;5039758;28;20057;-63
2022/11/29 02:16:46;;;;;;;17.80;11.23;;;;;;;-4.91;88.96;101981.72;5043697;28;20081;-64
2022/11/29 02:19:31;;;;;;;17.60;12.02;;;;;;;-4.92;88.95;101982.47;5035149;28;20100;-64
2022/11/29 02:22:14;;;;;;;16.05;10.63;;;;;;;-5.21;90.07;101981.91;5034893;28;20355;-64
2022/11/29 02:25:23;;;;;;;16.77;12.32;;;;;;;-4.85;88.59;101972.06;5039375;28;20021;-64
2022/11/29 02:28:13;;;;;;;15.90;11.23;;;;;;;-4.81;87.92;101976.59;5025791;28;20030;-63
2022/11/29 02:30:57;;;;;;;13.90;10.30;;;;;;;-4.66;88.39;101976.91;5032426;28;20097;-64
2022/11/29 02:33:43;;;;;;;12.57;9.77;;;;;;;-4.80;87.54;101973.31;5045046;28;20044;-65
2022/11/29 02:36:26;;;;;;;14.55;10.55;;;;;;;-4.71;87.27;101979.09;5043500;28;20029;-64
2022/11/29 02:39:10;;;;;;;14.85;10.45;;;;;;;-4.45;87.93;101981.88;5040285;28;20029;-65
2022/11/29 02:42:07;;;;;;;14.65;10.85;;;;;;;-4.29;86.88;101981.38;5025695;28;20030;-63
2022/11/29 02:44:54;;;;;;;15.35;10.63;;;;;;;-4.75;87.87;101982.13;5025839;28;20049;-64
2022/11/29 02:47:32;;;;;;;16.27;11.68;;;;;;;-4.45;87.50;101984.38;5030160;28;20317;-64
2022/11/29 02:50:16;;;;;;;16.35;11.07;;;;;;;-4.42;85.99;101985.50;5045355;28;20229;-64
2022/11/29 02:53:14;;;;;;;13.68;9.73;;;;;;;-4.73;86.28;101988.19;5030593;28;20032;-64
2022/11/29 02:55:47;;;;;;;13.68;10.57;;;;;;;-4.64;86.58;101989.69;5039968;28;20096;-63
2022/11/29 02:58:24;;;;;;;15.10;10.70;;;;;;;-4.96;87.24;101973.78;5043900;28;20321;-65
2022/11/29 03:01:01;;;;;;;13.98;10.25;;;;;;;-4.82;88.36;101981.53;5045180;28;20209;-63
2022/11/29 03:03:35;;;;;;;17.55;11.70;;;;;;;-4.77;87.44;101973.56;5043817;28;20025;-64
2022/11/29 03:06:06;;;;;;;16.77;10.77;;;;;;;-4.78;87.79;101986.94;5044005;28;20057;-63
2022/11/29 03:08:59;;;;;;;15.60;10.93;;;;;;;-4.70;87.50;101988.44;5025396;28;20025;-63
2022/11/29 03:11:37;;;;;;;12.85;9.05;;;;;;;-4.98;87.12;101965.19;5043589;28;20114;-63
2022/11/29 03:14:31;;;;;;;17.58;11.88;;;;;;;-4.71;87.58;101986.66;5027414;28;20053;-63
2022/11/29 03:17:16;;;;;;;17.40;12.30;;;;;;;-4.83;88.75;101973.09;5025043;28;20210;-64
2022/11/29 03:19:50;;;;;;;15.65;12.00;;;;;;;-4.63;88.03;101983.84;5024985;28;20036;-63
2022/11/29 03:22:31;;;;;;;17.40;11.57;;;;;;;-4.77;87.26;101978.63;5019806;28;20021;-62
2022/11/29 03:25:08;;;;;;;16.70;10.68;;;;;;;-4.76;87.09;101975.34;5044643;28;20244;-64
2022/11/29 03:27:46;;;;;;;14.18;9.82;;;;;;;-4.79;87.48;101956.50;5043443;28;20120;-63
2022/11/29 03:30:16;;;;;;;12.85;9.27;;;;;;;-4.73;86.75;101970.50;5033904;28;20072;-63
2022/11/29 03:32:56;;;;;;;11.20;7.75;;;;;;;-5.02;85.30;101963.16;5024769;28;20029;-64
2022/11/29 03:35:36;;;;;;;12.07;9.00;;;;;;;-4.89;85.45;101959.97;5024577;28;20034;-63
2022/11/29 03:38:14;;;;;;;12.35;9.05;;;;;;;-5.05;85.57;101965.47;5040459;28;20392;-63
2022/11/29 03:41:38;;;;;;;13.80;10.20;;;;;;;-5.12;85.79;101984.28;5044279;28;20040;-64
2022/11/29 03:44:41;;;;;;;13.82;9.63;;;;;;;-5.12;84.77;101999.44;5031549;28;20096;-63
2022/11/29 03:47:18;;;;;;;15.15;10.32;;;;;;;-5.17;84.69;101949.31;5043368;28;20087;-64
2022/11/29 03:50:03;;;;;;;15.73;11.40;;;;;;;-4.97;85.77;101971.09;5029722;28;20092;-64
2022/11/29 03:52:52;;;;;;;14.52;11.07;;;;;;;-5.14;85.12;102000.97;5024518;28;20036;-63
2022/11/29 03:55:56;;;;;;;16.27;12.73;;;;;;;-4.92;84.62;101997.63;5022923;28;20109;-63
2022/11/29 03:58:39;;;;;;;17.02;12.60;;;;;;;-4.94;86.03;101992.44;5036220;28;20041;-64
2022/11/29 04:01:20;;;;;;;15.85;10.70;;;;;;;-4.92;83.71;101995.09;5034876;28;20359;-63
2022/11/29 04:04:21;;;;;;;13.67;10.50;;;;;;;-5.05;85.36;101986.53;5024569;28;20025;-64
2022/11/29 04:07:08;;;;;;;15.73;10.50;;;;;;;-4.89;85.77;101997.84;5030186;28;20025;-64
2022/11/29 04:09:58;;;;;;;16.50;11.75;;;;;;;-4.82;85.41;102005.16;5038854;28;20034;-63
2022/11/29 04:12:43;;;;;;;15.65;11.45;;;;;;;-5.04;84.46;102008.53;5022912;28;20230;-64
2022/11/29 04:15:28;;;;;;;16.10;10.43;;;;;;;-5.10;84.80;101995.41;5025038;28;20038;-65
2022/11/29 04:18:15;;;;;;;16.52;11.45;;;;;;;-5.08;85.69;102020.81;5034904;28;20022;-64
2022/11/29 04:20:59;;;;;;;16.27;11.43;;;;;;;-5.01;84.66;102012.94;5023974;28;20045;-64
2022/11/29 04:23:50;;;;;;;15.30;10.90;;;;;;;-5.35;84.80;102009.38;5043091;28;20356;-62
2022/11/29 04:26:21;;;;;;;16.38;11.02;;;;;;;-5.15;83.78;102024.47;5023931;28;20029;-64
2022/11/29 04:28:53;;;;;;;;;;;;;;;-5.05;83.77;102023.56;5038797;28;20100;-65
2022/11/29 04:31:35;;;;;;;14.50;9.90;;;;;;;-5.07;84.40;102028.50;5032460;28;19913;-64
2022/11/29 04:34:33;;;;;;;13.63;10.60;;;;;;;-5.25;82.39;102010.22;5031582;28;20037;-64
2022/11/29 04:37:07;;;;;;;12.48;8.75;;;;;;;-5.22;83.72;102025.59;5035293;28;20022;-63
2022/11/29 04:40:16;;;;;;;20.25;11.07;;;;;;;-5.50;82.86;102003.94;5025329;28;20045;-63
2022/11/29 04:43:00;;;;;;;15.10;9.07;;;;;;;-5.42;84.16;102025.66;5029234;28;20100;-62
2022/11/29 04:45:46;;;;;;;13.70;9.52;;;;;;;-5.31;83.97;102018.97;5039617;28;20072;-62
2022/11/29 04:48:25;;;;;;;14.43;9.90;;;;;;;-5.44;82.99;102015.44;5023178;28;20032;-63
2022/11/29 04:51:28;;;;;;;14.02;9.82;;;;;;;-5.60;84.10;102028.47;5023690;28;20025;-63
2022/11/29 04:54:09;;;;;;;11.68;9.15;;;;;;;-5.56;84.69;102035.53;5023283;28;20102;-63
2022/11/29 04:56:45;;;;;;;13.57;9.33;;;;;;;-5.44;82.53;102035.63;5023309;28;20310;-64
2022/11/29 04:59:19;;;;;;;13.32;8.55;;;;;;;-5.57;82.64;102036.28;5040544;28;20134;-64
2022/11/29 05:02:08;;;;;;;13.98;9.88;;;;;;;-5.75;83.71;102017.09;5026389;28;20030;-64
2022/11/29 05:04:58;;;;;;;12.45;9.65;;;;;;;-5.52;83.10;102054.31;5023061;28;20022;-63
2022/11/29 05:07:44;;;;;;;12.75;9.65;;;;;;;-5.47;81.90;102050.53;5031160;28;20025;-63
2022/11/29 05:10:35;;;;;;;14.15;9.77;;;;;;;-5.57;82.03;102048.91;5023553;28;20033;-64
2022/11/29 05:13:38;;;;;;;14.10;10.73;;;;;;;-5.33;81.86;102060.88;5030693;28;20054;-63
2022/11/29 05:16:38;;;;;;;15.18;11.68;;;;;;;-5.21;81.95;102044.19;5031147;28;20048;-63
2022/11/29 05:19:03;;;;;;;14.13;10.48;;;;;;;-5.17;81.54;102065.50;5042517;28;20375;-64
2022/11/29 05:21:47;;;;;;;16.35;11.20;;;;;;;-5.15;81.57;102069.94;5042637;28;20057;-63
2022/11/29 05:24:16;;;;;;;13.82;10.93;;;;;;;-5.27;80.83;102068.97;5040266;28;20041;-63
2022/11/29 05:26:50;;;;;;;15.75;10.45;;;;;;;-5.42;82.38;102071.09;5022719;28;20302;-62
2022/11/29 05:29:36;;;;;;;15.48;11.32;;;;;;;-5.52;82.48;102082.06;5022579;28;20044;-64
2022/11/29 05:32:31;;;;;;;14.90;11.70;;;;;;;-5.40;84.00;102072.09;5038665;28;20049;-63
2022/11/29 05:35:00;;;;;;;16.33;11.75;;;;;;;-5.48;83.05;102074.00;5027162;28;20026;-62
2022/11/29 05:37:47;;;;;;;16.83;11.60;;;;;;;-5.53;82.86;102077.78;5027413;28;20029;-63
2022/11/29 05:40:39;;;;;;;16.48;12.68;;;;;;;-5.54;83.12;102081.09;5022588;28;20225;-63
2022/11/29 05:43:31;;;;;;;16.15;12.73;;;;;;;-5.41;82.99;102075.41;5030980;28;20386;-63
2022/11/29 05:46:08;;;;;;;;;;;;;;;-5.60;82.69;102083.06;5035798;28;20040;-64
2022/11/29 05:48:53;;;;;;;17.73;12.25;;;;;;;-5.71;81.45;102077.16;5026369;28;19913;-64
2022/11/29 05:51:21;;;;;;;19.10;11.93;;;;;;;-5.61;82.18;102076.28;5039497;28;20064;-63
2022/11/29 05:54:05;;;;;;;16.50;11.30;;;;;;;-5.79;81.54;102068.94;5022552;28;20282;-64
2022/11/29 05:56:41;;;;;;;16.42;12.10;;;;;;;-5.67;82.62;102085.84;5023008;28;20050;-63
2022/11/29 05:59:28;;;;;;;16.90;11.93;;;;;;;-5.52;81.86;102086.25;5039115;28;20306;-64
2022/11/29 06:02:29;;;;;;;15.60;11.23;;;;;;;-5.54;82.54;102086.13;5033562;28;20029;-64
2022/11/29 06:05:13;;;;;;;17.35;11.90;;;;;;;-5.47;81.39;102092.53;5051138;28;20107;-63
2022/11/29 06:07:58;;;;;;;13.23;9.80;;;;;;;-5.74;80.62;102103.00;5035121;28;20083;-64
2022/11/29 06:10:31;;;;;;;17.60;11.27;;;;;;;-5.86;82.26;102068.31;5043582;28;20244;-64
2022/11/29 06:13:03;;;;;;;15.38;11.20;;;;;;;-5.78;80.82;102102.63;5039090;28;20210;-65
2022/11/29 06:15:39;;;;;;;16.85;12.10;;;;;;;-5.61;80.95;102086.38;5028739;28;20087;-64
2022/11/29 06:19:06;;;;;;;16.88;10.65;;;;;;;-5.87;82.18;102094.28;5045843;28;20144;-65
2022/11/29 06:21:39;;;;;;;17.67;12.10;;;;;;;-5.94;80.78;102108.91;5039846;28;20107;-63
2022/11/29 06:24:34;;;;;;;16.45;11.50;;;;;;;-5.92;81.84;102104.88;5047065;28;20045;-64
2022/11/29 06:27:12;;;;;;;15.63;11.45;;;;;;;-6.18;81.61;102105.22;5028220;28;20076;-64
2022/11/29 06:29:51;;;;;;;21.88;12.98;;;;;;;-6.10;83.06;102099.19;5028531;28;20030;-62
2022/11/29 06:32:39;;;;;;;17.20;11.80;;;;;;;-6.13;83.07;102096.44;5035324;28;20085;-63
2022/11/29 06:35:32;;;;;;;17.83;12.15;;;;;;;-5.86;82.71;102116.25;5034382;28;20021;-62
2022/11/29 06:38:03;;;;;;;16.10;11.68;;;;;;;-6.01;82.74;102105.75;5043628;28;20329;-63
2022/11/29 06:40:29;;;;;;;17.75;12.25;;;;;;;-5.97;82.44;102120.41;5034407;28;20037;-63
2022/11/29 06:42:54;;;;;;;16.90;12.32;;;;;;;-5.85;82.55;102125.59;5030751;28;20048;-64
2022/11/29 06:45:20;;;;;;;17.92;11.93;;;;;;;-6.05;80.32;102116.38;5043009;28;20028;-64
2022/11/29 06:47:59;;;;;;;17.80;12.50;;;;;;;-6.01;80.81;102100.72;5025497;28;20088;-63
2022/11/29 06:50:54;;;;;;;16.35;12.45;;;;;;;-5.86;82.50;102133.91;5043987;28;20025;-64
2022/11/29 06:53:41;;;;;;;15.88;12.50;;;;;;;-5.96;81.20;102133.09;5032240;28;20087;-64
2022/11/29 06:56:22;;;;;;;17.50;13.13;;;;;;;-5.63;81.38;102139.25;5028585;28;20033;-65
2022/11/29 06:59:02;;;;;;;17.02;12.27;;;;;;;-6.16;80.64;102123.88;5038939;28;20017;-64
2022/11/29 07:02:02;;;;;;;18.90;12.90;;;;;;;-5.80;81.83;102124.31;5034217;28;20325;-64
2022/11/29 07:04:44;;;;;;;15.98;12.15;;;;;;;-5.68;80.54;102125.34;5019881;28;20049;-64
2022/11/29 07:07:20;;;;;;;19.88;12.85;;;;;;;-5.79;80.29;102105.91;5031653;28;20071;-64
2022/11/29 07:09:49;;;;;;;21.45;14.60;;;;;;;-5.54;80.25;102139.13;5034724;28;20263;-63
2022/11/29 07:12:16;;;;;;;17.77;13.00;;;;;;;-5.37;80.66;102128.78;5034418;28;20330;-63
2022/11/29 07:14:42;;;;;;;18.95;13.52;;;;;;;-5.44;79.50;102136.63;5032910;28;20108;-63
2022/11/29 07:17:19;;;;;;;21.00;13.45;;;;;;;-5.48;80.19;102121.97;5035479;28;20044;-63
2022/11/29 07:20:09;;;;;;;19.75;12.65;;;;;;;-5.43;79.12;102125.78;5034968;28;20088;-63
2022/11/29 07:23:33;;;;;;;18.58;13.02;;;;;;;-5.32;78.57;102136.75;5023840;28;20029;-64
2022/11/29 07:26:22;;;;;;;16.05;11.23;;;;;;;-5.93;78.40;102130.88;5062348;28;20029;-63
2022/11/29 07:29:29;;;;;;;19.50;13.07;;;;;;;-5.55;78.75;102140.75;5069382;28;20032;-64
2022/11/29 07:32:02;;;;;;;19.15;12.75;;;;;;;-5.63;78.74;102134.22;5042446;28;20037;-64
2022/11/29 07:34:37;;;;;;;19.35;12.98;;;;;;;-5.82;78.58;102141.84;5035035;28;20099;-63
2022/11/29 07:37:18;;;;;;;17.45;13.00;;;;;;;-6.03;81.01;102135.91;5031326;28;20037;-62
2022/11/29 07:39:59;;;;;;;19.35;13.35;;;;;;;-6.10;79.64;102139.56;5044442;28;20033;-63
2022/11/29 07:42:43;;;;;;;18.38;12.77;;;;;;;-6.05;80.48;102104.63;5029941;28;20025;-63
2022/11/29 07:45:18;;;;;;;18.55;13.30;;;;;;;-5.78;78.44;102138.84;5025142;28;20017;-63
2022/11/29 07:47:45;;;;;;;17.23;12.90;;;;;;;-5.96;78.57;102135.63;5024516;28;20053;-63
2022/11/29 07:50:11;;;;;;;21.73;13.98;;;;;;;-5.61;78.53;102136.88;5042464;28;20037;-65
2022/11/29 07:52:36;;;;;;;21.48;13.63;;;;;;;-5.78;78.52;102143.00;5044348;28;20021;-63
2022/11/29 07:55:03;;;;;;;18.65;13.45;;;;;;;-6.15;80.50;102123.13;5037332;28;20309;-63
2022/11/29 07:57:29;;;;;;;21.35;14.43;;;;;;;-5.93;80.94;102142.56;5025577;28;20242;-65
2022/11/29 07:59:55;;;;;;;21.13;14.45;;;;;;;-5.70;79.85;102138.59;5042627;28;20032;-64
2022/11/29 08:02:28;;;;;;;20.90;14.63;;;;;;;-5.57;79.56;102137.25;5026442;28;20032;-63
2022/11/29 08:04:54;;;;;;;20.52;14.60;;;;;;;-5.76;79.17;102137.34;5024302;28;20022;-64
2022/11/29 08:07:20;;;;;;;20.75;15.38;;;;;;;-5.62;78.52;102135.94;5024295;28;20072;-62
2022/11/29 08:09:45;;;;;;;21.98;14.60;;;;;;;-5.77;78.97;102144.75;5023896;28;20034;-62
2022/11/29 08:12:11;;;;;;;20.08;15.45;;;;;;;-5.61;79.62;102144.44;5023994;28;20310;-63
2022/11/29 08:14:37;;;;;;;22.33;15.48;;;;;;;-5.34;79.47;102139.88;5043710;28;20087;-64
2022/11/29 08:17:02;;;;;;;21.20;14.45;;;;;;;-5.68;78.36;102137.97;5028829;28;20093;-63
2022/11/29 08:19:29;;;;;;;24.83;15.88;;;;;;;-6.00;79.60;102142.84;5034440;28;20211;-64
2022/11/29 08:21:55;;;;;;;20.30;14.48;;;;;;;-5.82;80.47;102140.97;5036355;28;20036;-65
2022/11/29 08:24:21;;;;;;;22.33;15.95;;;;;;;-6.00;78.92;102147.88;5023792;28;20076;-64
2022/11/29 08:26:46;;;;;;;23.08;15.40;;;;;;;-6.07;80.20;102146.47;5039508;28;20026;-63
2022/11/29 08:29:12;;;;;;;19.75;15.68;;;;;;;-5.68;80.35;102149.72;5023703;28;20030;-63
2022/11/29 08:31:38;;;;;;;23.50;16.17;;;;;;;-5.76;79.03;102146.53;5034695;28;20095;-64
2022/11/29 08:34:07;;;;;;;21.35;16.17;;;;;;;-5.51;79.14;102134.34;5036538;28;20065;-63
2022/11/29 08:36:33;;;;;;;22.65;15.40;;;;;;;-5.48;79.81;102143.81;5025947;28;20040;-64
2022/11/29 08:39:01;;;;;;;28.50;16.85;;;;;;;-5.56;79.92;102140.63;5043362;28;20030;-64
2022/11/29 08:41:27;;;;;;;26.20;16.02;;;;;;;-5.68;79.68;102148.06;5025763;28;20025;-64
2022/11/29 08:43:53;;;;;;;22.23;15.98;;;;;;;-5.57;78.58;102138.88;5036490;28;20026;-64
2022/11/29 08:46:19;;;;;;;24.73;16.83;;;;;;;-5.42;79.03;102124.13;5037017;28;20056;-64
2022/11/29 08:48:47;;;;;;;22.10;16.30;;;;;;;-5.13;79.25;102135.72;5039604;28;20081;-64
2022/11/29 08:51:13;;;;;;;22.98;15.98;;;;;;;-5.28;77.78;102140.41;5023242;28;20483;-63
2022/11/29 08:53:43;;;;;;;25.52;17.38;;;;;;;-5.12;78.87;102140.03;5034242;28;20092;-64
2022/11/29 08:56:17;;;;;;;22.08;16.75;;;;;;;-5.16;78.02;102140.53;5023043;28;20081;-64
2022/11/29 08:58:44;;;;;;;22.08;16.67;;;;;;;-5.01;77.32;102144.31;5029595;28;20014;-64
2022/11/29 09:01:17;;;;;;;24.20;16.73;;;;;;;-5.08;77.69;102117.66;5029966;28;20044;-64
2022/11/29 09:04:01;;;;;;;26.35;17.25;;;;;;;-5.38;78.88;102141.28;5037159;28;20092;-64
2022/11/29 09:06:36;;;;;;;25.33;16.67;;;;;;;-5.63;78.76;102114.03;5024389;28;20206;-63
2022/11/29 09:09:01;;;;;;;23.75;16.55;;;;;;;-5.43;78.43;102132.44;5030525;28;20030;-64
2022/11/29 09:11:29;;;;;;;25.65;17.48;;;;;;;-5.59;79.09;102133.69;5024380;28;20033;-64
2022/11/29 09:13:58;;;;;;;29.13;18.63;;;;;;;-5.52;79.27;102117.41;5022887;28;20097;-63
2022/11/29 09:16:26;;;;;;;25.05;17.20;;;;;;;-5.61;78.85;102150.34;5032526;28;20068;-64
2022/11/29 09:18:54;;;;;;;24.48;17.10;;;;;;;-5.76;79.89;102132.28;5032147;28;20089;-64
2022/11/29 09:21:24;;;;;;;27.20;17.60;;;;;;;-5.91;78.38;102141.97;5034772;28;20044;-64
2022/11/29 09:24:01;;;;;;;27.33;17.63;;;;;;;-5.98;80.08;102124.56;5027732;28;20030;-64
2022/11/29 09:26:30;;;;;;;26.45;18.42;;;;;;;-5.55;80.12;102152.50;5033125;28;20029;-64
2022/11/29 09:28:59;;;;;;;27.42;18.23;;;;;;;-5.53;79.14;102156.03;5033406;28;20084;-65
2022/11/29 09:31:26;;;;;;;25.92;18.45;;;;;;;-5.18;78.38;102147.13;5030444;28;20045;-64
2022/11/29 09:33:53;;;;;;;27.63;17.70;;;;;;;-5.77;77.69;102110.34;5029009;28;20314;-64
2022/11/29 09:36:19;;;;;;;24.40;17.40;;;;;;;-5.30;78.93;102140.28;5032122;28;20087;-64
2022/11/29 09:38:44;;;;;;;27.35;19.15;;;;;;;-5.13;78.73;102139.16;5031742;28;20048;-64
2022/11/29 09:41:31;;;;;;;25.40;18.42;;;;;;;-5.47;78.92;102136.38;5031072;28;20336;-64
2022/11/29 09:43:59;;;;;;;26.30;17.83;;;;;;;-5.12;77.66;102135.84;5035457;28;20026;-64
2022/11/29 09:46:37;;;;;;;27.50;18.55;;;;;;;-5.10;76.54;102139.41;5027925;28;20030;-65
2022/11/29 09:49:03;;;;;;;26.63;18.30;;;;;;;-5.17;78.25;102139.66;5032372;28;20033;-64
2022/11/29 09:51:49;;;;;;;27.65;18.33;;;;;;;-5.35;77.78;102143.19;5043904;28;20048;-63
2022/11/29 09:54:54;;;;;;;27.52;19.63;;;;;;;-5.38;77.50;102129.53;5039877;28;20025;-63
2022/11/29 09:57:22;;;;;;;35.30;21.00;;;;;;;-5.22;77.01;102124.09;5026762;28;20136;-64
2022/11/29 10:00:13;;;;;;;28.23;18.17;;;;;;;-5.64;77.90;102106.28;5028709;28;20210;-64
2022/11/29 10:02:44;;;;;;;31.65;20.75;;;;;;;-5.52;76.54;102102.28;5037223;28;20042;-63
2022/11/29 10:05:37;;;;;;;28.83;20.60;;;;;;;-5.70;78.50;102105.78;5042554;28;20029;-64
2022/11/29 10:08:13;;;;;;;28.77;18.85;;;;;;;-5.28;77.90;102122.75;5039845;28;20225;-63
2022/11/29 10:10:45;;;;;;;26.15;19.15;;;;;;;-5.52;77.31;102093.81;5035488;28;20033;-63
2022/11/29 10:13:24;;;;;;;30.95;20.83;;;;;;;-5.22;75.99;102115.66;5025494;28;20267;-64
2022/11/29 10:15:57;;;;;;;29.88;19.38;;;;;;;-5.14;76.60;102118.81;5025908;28;20245;-64
2022/11/29 10:18:58;;;;;;;29.48;20.40;;;;;;;-5.13;75.99;102131.56;5026145;28;20034;-63
2022/11/29 10:21:30;;;;;;;31.10;19.95;;;;;;;-5.63;76.68;102096.34;5041930;28;20084;-63
2022/11/29 10:24:00;;;;;;;27.08;19.30;;;;;;;-5.48;77.58;102098.38;5045753;28;20032;-64
2022/11/29 10:26:26;;;;;;;28.15;19.95;;;;;;;-5.42;76.57;102103.91;5044685;28;20224;-64
2022/11/29 10:28:55;;;;;;;30.80;20.88;;;;;;;-5.47;77.05;102116.16;5045529;28;20201;-63
2022/11/29 10:31:28;;;;;;;29.02;20.40;;;;;;;-5.50;76.34;102120.97;5037936;28;20033;-63
2022/11/29 10:33:55;;;;;;;32.80;20.88;;;;;;;-5.29;76.62;102115.91;5029846;28;20031;-64
2022/11/29 10:36:41;;;;;;;31.63;20.77;;;;;;;-5.14;75.61;102119.69;5046022;28;20028;-64
2022/11/29 10:39:20;;;;;;;30.30;19.15;;;;;;;-5.61;76.39;102107.44;5045758;28;20099;-64
2022/11/29 10:41:54;;;;;;;34.30;20.73;;;;;;;-5.58;78.28;102134.59;5026222;28;20021;-64
2022/11/29 10:44:19;;;;;;;30.52;20.63;;;;;;;-5.32;76.41;102126.63;5041369;28;20037;-64
2022/11/29 10:46:45;;;;;;;28.60;19.65;;;;;;;-5.52;76.37;102131.69;5034466;28;20279;-63
2022/11/29 10:49:17;;;;;;;33.50;20.08;;;;;;;-5.82;77.92;102088.88;5025410;28;20025;-64
2022/11/29 10:51:45;;;;;;;25.33;17.77;;;;;;;-5.52;77.60;102125.00;5025535;28;20318;-64
2022/11/29 10:54:38;;;;;;;30.25;19.42;;;;;;;-5.71;76.61;102112.50;5033366;28;20043;-64
2022/11/29 10:57:16;;;;;;;28.17;19.13;;;;;;;-5.68;77.12;102124.47;5030288;28;20081;-63
2022/11/29 10:59:57;;;;;;;29.92;19.30;;;;;;;-5.86;77.38;102101.97;5042138;28;20029;-64
2022/11/29 11:02:23;;;;;;;28.17;18.58;;;;;;;-5.55;77.87;102117.16;5029684;28;20068;-64
2022/11/29 11:04:49;;;;;;;27.77;19.00;;;;;;;-5.60;76.35;102121.84;5047107;28;20090;-64
2022/11/29 11:07:35;;;;;;;31.27;19.77;;;;;;;-5.85;78.35;102111.31;5028040;28;20330;-64
2022/11/29 11:10:14;;;;;;;29.05;20.52;;;;;;;-5.52;77.27;102127.50;5037086;28;20033;-64
2022/11/29 11:12:58;;;;;;;32.70;19.48;;;;;;;-5.82;77.05;102120.78;5030386;28;20152;-63
2022/11/29 11:15:30;;;;;;;32.25;20.25;;;;;;;-5.65;76.76;102130.66;5026021;28;20036;-64
2022/11/29 11:18:05;;;;;;;;;;;;;;;-5.83;77.34;102124.94;5042008;28;20052;-63
2022/11/29 11:20:38;;;;;;;29.33;19.30;;;;;;;-5.81;78.32;102109.97;5027494;28;20166;-62
2022/11/29 11:23:21;;;;;;;29.48;21.10;;;;;;;-5.71;77.07;102132.69;5027968;28;20097;-63
2022/11/29 11:25:49;;;;;;;34.03;20.52;;;;;;;-5.80;76.79;102127.75;5024940;28;20022;-64
2022/11/29 11:28:23;;;;;;;31.67;20.27;;;;;;;-5.67;77.73;102128.75;5029855;28;20174;-64
2022/11/29 11:31:10;;;;;;;31.77;20.75;;;;;;;-5.84;79.09;102133.28;5041782;28;20315;-64
2022/11/29 11:33:44;;;;;;;30.88;20.25;;;;;;;-5.69;76.57;102097.47;5025808;28;20034;-64
2022/11/29 11:36:18;;;;;;;34.25;20.73;;;;;;;-5.79;78.64;102118.53;5044270;28;20264;-64
2022/11/29 11:38:54;;;;;;;31.92;21.80;;;;;;;-5.59;77.07;102120.19;5026826;28;20057;-62
2022/11/29 11:44:35;;;;;;;32.17;21.42;;;;;;;-5.76;78.03;102136.44;5032586;28;20029;-64
2022/11/29 11:47:04;;;;;;;29.95;19.80;;;;;;;-5.80;77.35;102110.09;5034509;28;20036;-63
2022/11/29 11:49:49;;;;;;;29.85;18.42;;;;;;;-5.96;78.86;102123.00;5027369;28;20026;-63
2022/11/29 11:53:10;;;;;;;29.60;19.70;;;;;;;-5.91;77.03;102133.53;5026952;28;20330;-64
2022/11/29 11:55:41;;;;;;;28.45;19.75;;;;;;;-5.81;76.93;102113.34;5032979;28;20029;-63
2022/11/29 11:58:13;;;;;;;28.33;17.92;;;;;;;-5.97;76.68;102159.09;5035843;28;20046;-63